Airfield :
LOGIN :

Register | Disclaimer

   EN    FR    IT 

 










Legend :    VFR   Marginal VFR   IFR   Intensive IFR   Very Intensive IFR
Visi :
Ceiling :
>= 8 km
>= 3000ft
5 to 8 km
1000 to 3000 ft
1500m to 5 km
500 to 1000 ft
800 to 1500m
200 to 500 ft
< 800m
< 200 ft
Symbols :   Thunderstorms  Fog  Heavy snow  Heavy precipitations  Wind > 20 kt
SIGMETs :     Misc.  Thunderstorms  Icing  Turbulence  Mountain Waves  Volcanic Ashes






- Airport Elevation : 84 ft


LFBC - Cazaux

CURRENT METAR :
  • 250830Z AUTO 00000KT 7000 // NSC M00/M00 Q1033

EXPIRED METARs :
  • 250800Z AUTO 00000KT 7000 // NSC M02/M02 Q1033
  • 250730Z AUTO 00000KT 2200 // NSC M02/M02 Q1033
  • 250700Z AUTO 14003KT 3000 // NSC M01/M01 Q1032
  • 250630Z AUTO 12001KT 1500 R24/1200U // NSC M02/M02 Q1032
  • 250600Z AUTO 09003KT 9999 // NSC M01/M02 Q1032

TAF AMD TAF LFBC
Valid from the 25 at 05:00 until the 26 at 03:00 UTC


250540Z 2505/2603 06003KT 6000 NSC
TEMPO 2505/2509 3000 BR
BECMG 2518/2520 3000 BR SCT003
BECMG 2520/2522 0800 FG VV///



MET'MAP, your aeronautical weather chart ! - Copyright ORBIFLY December 2007 - Disclaimer

ORBIFLY MET'MAP TEAM :

Programming & Development : Alexandra Zaïnal
Original concept : Baudouin d'Aumeries
Technical & hardware support : Manuel Goepfert
Assistance : Marc-Olivier Méhu

Contact : metmap@orbifly.com




SOURCES & CREDITS :

   NOAA